createdAt,value
2023-05-01T00:00:30.264Z,7.10
2023-05-01T00:05:32.634Z,6.72
2023-05-01T00:10:38.605Z,7.32
2023-05-01T00:15:42.556Z,6.97
2023-05-01T00:20:45.349Z,6.62
2023-05-01T00:25:47.835Z,7.14
2023-05-01T00:30:50.265Z,6.06
2023-05-01T00:35:53.218Z,6.36
2023-05-01T00:40:55.593Z,7.25
2023-05-01T00:45:58.070Z,7.13
2023-05-01T00:51:01.448Z,7.26
2023-05-01T00:56:04.511Z,6.92
2023-05-01T01:01:09.215Z,6.60
2023-05-01T01:06:37.017Z,5.65
2023-05-01T01:12:04.279Z,7.25
2023-05-01T01:17:19.264Z,6.61
2023-05-01T01:22:24.564Z,6.00
2023-05-01T01:27:35.753Z,7.10
2023-05-01T01:32:50.433Z,7.15
2023-05-01T01:38:05.747Z,6.39
2023-05-01T01:43:08.953Z,7.12
2023-05-01T01:48:16.425Z,7.01
2023-05-01T01:53:19.071Z,7.14
2023-05-01T01:58:26.702Z,6.93
2023-05-01T02:03:31.557Z,6.81
2023-05-01T02:08:34.965Z,5.02
2023-05-01T02:13:39.239Z,5.97
2023-05-01T02:19:04.234Z,2.41
2023-05-01T02:24:07.914Z,4.70
2023-05-01T02:29:11.203Z,2.23
2023-05-01T02:34:13.704Z,6.55
2023-05-01T02:39:16.261Z,6.39
2023-05-01T02:44:19.428Z,7.17
2023-05-01T02:49:23.385Z,4.42
2023-05-01T02:54:26.153Z,4.61
2023-05-01T02:59:28.522Z,5.20
2023-05-01T03:04:31.005Z,4.03
2023-05-01T03:09:34.658Z,3.45
2023-05-01T03:14:37.979Z,5.79
2023-05-01T03:19:42.820Z,6.17
2023-05-01T03:24:45.409Z,3.20
2023-05-01T03:29:48.122Z,5.34
2023-05-01T03:34:50.749Z,6.81
2023-05-01T03:39:54.560Z,5.37
2023-05-01T03:45:16.945Z,7.24
2023-05-01T03:50:19.487Z,5.61
2023-05-01T03:55:24.739Z,4.10
2023-05-01T04:00:28.279Z,7.23
2023-05-01T04:05:31.626Z,5.48
2023-05-01T04:10:38.381Z,7.30
2023-05-01T04:15:45.064Z,6.23
2023-05-01T04:20:48.462Z,4.75
2023-05-01T04:25:51.213Z,6.29
2023-05-01T04:30:54.329Z,3.39
2023-05-01T04:35:56.788Z,4.48
2023-05-01T04:40:59.757Z,7.23
2023-05-01T04:46:04.197Z,6.64
2023-05-01T04:51:06.658Z,6.32
2023-05-01T04:56:09.903Z,6.61
2023-05-01T05:01:12.776Z,5.04
2023-05-01T05:06:15.562Z,5.05
2023-05-01T05:11:19.366Z,4.63
2023-05-01T05:16:25.309Z,6.80
2023-05-01T05:21:28.217Z,5.52
2023-05-01T05:26:32.865Z,4.17
2023-05-01T05:31:38.335Z,5.81
2023-05-01T05:36:41.190Z,4.66
2023-05-01T05:41:44.143Z,3.45
2023-05-01T05:46:47.255Z,4.20
2023-05-01T05:51:56.547Z,5.85
2023-05-01T05:57:00.432Z,4.78
2023-05-01T06:02:03.489Z,5.45
2023-05-01T06:07:06.700Z,6.91
2023-05-01T06:12:09.692Z,7.10
2023-05-01T06:17:12.910Z,6.05
2023-05-01T06:22:15.656Z,6.53
2023-05-01T06:27:38.088Z,6.19
2023-05-01T06:32:42.556Z,5.17
2023-05-01T06:37:46.474Z,7.91
2023-05-01T06:42:49.026Z,7.11
2023-05-01T06:47:51.424Z,6.96
2023-05-01T06:52:53.958Z,7.88
2023-05-01T06:57:56.456Z,7.61
2023-05-01T07:02:58.939Z,8.03
2023-05-01T07:08:02.128Z,7.62
2023-05-01T07:13:04.821Z,8.10
2023-05-01T07:18:07.335Z,7.95
2023-05-01T07:23:10.204Z,7.86
2023-05-01T07:28:12.668Z,8.07
2023-05-01T07:33:15.249Z,7.82
2023-05-01T07:38:18.158Z,8.76
2023-05-01T07:43:21.128Z,8.67
2023-05-01T07:48:23.783Z,7.52
2023-05-01T07:53:26.151Z,8.35
2023-05-01T07:58:28.568Z,7.26
2023-05-01T08:03:31.857Z,8.77
2023-05-01T08:08:34.647Z,6.49
2023-05-01T08:13:37.243Z,7.62
2023-05-01T08:18:39.619Z,8.86
2023-05-01T08:23:42.078Z,5.87
2023-05-01T08:28:44.503Z,9.05
2023-05-01T08:33:46.879Z,8.99
2023-05-01T08:38:49.598Z,9.06
2023-05-01T08:43:52.131Z,6.23
2023-05-01T08:48:59.145Z,6.22
2023-05-01T08:54:05.970Z,7.88
2023-05-01T08:59:10.431Z,5.59
2023-05-01T09:04:13.840Z,7.08
2023-05-01T09:09:16.704Z,7.02
2023-05-01T09:14:19.317Z,7.97
2023-05-01T09:19:21.814Z,9.37
2023-05-01T09:24:26.126Z,9.25
2023-05-01T09:29:43.369Z,8.95
2023-05-01T09:34:45.777Z,9.38
2023-05-01T09:39:48.169Z,9.44
2023-05-01T09:44:50.564Z,9.07
2023-05-01T09:49:54.244Z,8.94
2023-05-01T09:55:17.893Z,9.12
2023-05-01T10:00:22.547Z,8.94
2023-05-01T10:05:25.169Z,8.79
2023-05-01T10:10:28.179Z,8.80
2023-05-01T10:15:37.843Z,8.66
2023-05-01T10:20:42.137Z,8.14
2023-05-01T10:25:44.788Z,7.72
2023-05-01T10:30:47.951Z,8.07
2023-05-01T10:35:56.683Z,7.41
2023-05-01T10:40:59.142Z,6.86
2023-05-01T10:46:10.628Z,7.84
2023-05-01T10:51:15.961Z,7.73
2023-05-01T10:56:27.971Z,7.68
2023-05-01T11:01:56.734Z,7.63
2023-05-01T11:07:02.484Z,7.52
2023-05-01T11:12:05.912Z,7.19
2023-05-01T11:17:08.358Z,7.32
2023-05-01T11:22:14.066Z,7.26
2023-05-01T11:27:16.805Z,6.59
2023-05-01T11:32:25.422Z,6.93
2023-05-01T11:37:44.911Z,6.67
2023-05-01T11:42:47.336Z,6.74
2023-05-01T11:47:52.311Z,6.41
2023-05-01T11:52:54.974Z,6.23
2023-05-01T11:57:58.051Z,6.15
2023-05-01T12:03:12.561Z,6.95
2023-05-01T12:08:16.071Z,7.01
2023-05-01T12:13:18.617Z,6.06
2023-05-01T12:18:24.541Z,6.16
2023-05-01T12:23:44.740Z,6.39
2023-05-01T12:29:01.116Z,5.99
2023-05-01T12:34:12.987Z,6.83
2023-05-01T12:39:20.613Z,6.34
2023-05-01T12:44:28.070Z,5.72
2023-05-01T12:49:45.383Z,6.95
2023-05-01T12:55:09.376Z,6.76
2023-05-01T13:00:13.601Z,6.24
2023-05-01T13:05:16.515Z,6.26
2023-05-01T13:10:30.828Z,7.19
2023-05-01T13:15:33.296Z,6.60
2023-05-01T13:20:39.315Z,7.12
2023-05-01T13:25:42.058Z,7.26
2023-05-01T13:30:44.716Z,6.67
2023-05-01T13:35:47.082Z,6.94
2023-05-01T13:40:49.427Z,7.09
2023-05-01T13:45:52.204Z,6.93
2023-05-01T13:50:54.641Z,7.35
2023-05-01T13:55:56.993Z,7.18
2023-05-01T14:00:59.598Z,7.24
2023-05-01T14:06:02.241Z,7.59
2023-05-01T14:11:08.492Z,7.56
2023-05-01T14:16:13.503Z,7.46
2023-05-01T14:21:17.668Z,7.64
2023-05-01T14:26:21.175Z,6.85
2023-05-01T14:31:29.705Z,7.67
2023-05-01T14:36:33.342Z,6.74
2023-05-01T14:41:39.346Z,7.40
2023-05-01T14:46:49.919Z,7.31
2023-05-01T14:51:53.647Z,7.34
2023-05-01T14:56:56.149Z,6.52
2023-05-01T15:01:58.640Z,7.64
2023-05-01T15:07:01.273Z,6.68
2023-05-01T15:12:06.080Z,5.76
2023-05-01T15:17:10.803Z,6.93
2023-05-01T15:22:13.479Z,7.66
2023-05-01T15:27:16.073Z,4.93
2023-05-01T15:32:18.892Z,6.79
2023-05-01T15:37:21.474Z,5.74
2023-05-01T15:42:24.682Z,6.17
2023-05-01T15:47:27.361Z,7.41
2023-05-01T15:52:29.820Z,5.50
2023-05-01T15:57:33.102Z,6.74
2023-05-01T16:02:35.603Z,7.01
2023-05-01T16:07:40.640Z,5.43
2023-05-01T16:12:44.346Z,6.35
2023-05-01T16:17:47.154Z,5.37
2023-05-01T16:22:50.036Z,6.28
2023-05-01T16:27:52.722Z,6.45
2023-05-01T16:32:55.361Z,5.27
2023-05-01T16:38:00.037Z,6.23
2023-05-01T16:43:03.634Z,4.86
2023-05-01T16:48:06.875Z,6.50
2023-05-01T16:53:09.432Z,6.94
2023-05-01T16:58:12.338Z,5.99
2023-05-01T17:03:15.597Z,5.85
2023-05-01T17:08:18.210Z,4.95
2023-05-01T17:13:21.263Z,6.89
2023-05-01T17:18:23.749Z,4.85
2023-05-01T17:23:28.504Z,4.66
2023-05-01T17:28:31.208Z,6.32
2023-05-01T17:33:34.801Z,7.17
2023-05-01T17:38:37.576Z,6.59
2023-05-01T17:43:40.145Z,6.85
2023-05-01T17:48:42.964Z,6.61
2023-05-01T17:53:45.572Z,5.75
2023-05-01T17:58:48.205Z,4.79
2023-05-01T18:03:52.789Z,6.35
2023-05-01T18:08:55.480Z,4.24
2023-05-01T18:14:02.299Z,4.95
2023-05-01T18:19:04.952Z,3.70
2023-05-01T18:24:07.586Z,5.73
2023-05-01T18:29:09.982Z,5.98
2023-05-01T18:34:12.646Z,5.98
2023-05-01T18:39:15.770Z,6.41
2023-05-01T18:44:18.662Z,1.94
2023-05-01T18:49:23.984Z,3.46
2023-05-01T18:54:26.694Z,4.07
2023-05-01T18:59:31.371Z,6.31
2023-05-01T19:04:56.109Z,6.31
2023-05-01T19:10:02.816Z,5.71
2023-05-01T19:15:07.903Z,5.85
2023-05-01T19:20:10.804Z,6.11
2023-05-01T19:25:13.190Z,6.05
2023-05-01T19:30:15.968Z,5.55
2023-05-01T19:35:18.321Z,5.87
2023-05-01T19:40:21.497Z,5.46
2023-05-01T19:45:24.109Z,4.54
2023-05-01T19:50:26.710Z,5.60
2023-05-01T19:55:29.208Z,4.93
2023-05-01T20:00:31.536Z,5.43
2023-05-01T20:05:33.936Z,4.87
2023-05-01T20:10:36.490Z,5.24
2023-05-01T20:15:39.655Z,5.21
2023-05-01T20:20:43.341Z,4.86
2023-05-01T20:25:48.088Z,4.62
2023-05-01T20:30:50.755Z,4.27
2023-05-01T20:35:55.643Z,4.75
2023-05-01T20:40:58.172Z,4.73
2023-05-01T20:46:00.655Z,3.86
2023-05-01T20:51:03.031Z,4.90
2023-05-01T20:56:05.886Z,4.28
2023-05-01T21:01:08.474Z,4.57
2023-05-01T21:06:11.119Z,4.08
2023-05-01T21:11:13.564Z,4.38
2023-05-01T21:16:17.007Z,4.60
2023-05-01T21:21:19.453Z,3.67
2023-05-01T21:26:21.879Z,3.30
2023-05-01T21:31:29.002Z,3.96
2023-05-01T21:36:31.753Z,4.29
2023-05-01T21:41:34.107Z,4.09
2023-05-01T21:46:37.577Z,4.16
2023-05-01T21:51:40.359Z,3.38
2023-05-01T21:56:42.836Z,3.29
2023-05-01T22:01:45.292Z,3.81
2023-05-01T22:06:47.886Z,3.45
2023-05-01T22:11:50.415Z,3.84
2023-05-01T22:16:53.590Z,3.40
2023-05-01T22:21:56.075Z,3.45
2023-05-01T22:26:59.512Z,3.64
2023-05-01T22:32:01.984Z,3.58
2023-05-01T22:37:04.448Z,3.03
2023-05-01T22:42:06.898Z,3.25
2023-05-01T22:47:09.177Z,3.00
2023-05-01T22:52:11.670Z,2.87
2023-05-01T22:57:14.151Z,3.25
2023-05-01T23:02:18.055Z,2.45
2023-05-01T23:07:21.027Z,2.12
2023-05-01T23:12:26.020Z,2.90
2023-05-01T23:17:34.059Z,2.69
2023-05-01T23:22:40.649Z,2.33
2023-05-01T23:27:43.490Z,2.85
2023-05-01T23:32:46.064Z,2.53
2023-05-01T23:37:49.662Z,2.74
2023-05-01T23:42:55.438Z,2.52
2023-05-01T23:47:58.942Z,2.47
2023-05-01T23:53:08.592Z,1.91
2023-05-01T23:58:10.944Z,2.68
